Terminal Aerodrome Forecast
Issued by NWS

Home | Current Version | Previous Version | Text Only | Print | Product List | Glossary On
Versions: 1 2 3 4 5 6 7 8 9 10 11 12 13 14 15 16 17 18
000
FTUS43 KEAX 230520
TAFMKC
TAF
KMKC 230520Z 2306/2406 35005KT P6SM SKC
     FM230800 VRB02KT 6SM BR SKC
      TEMPO 2310/2312 3SM BR SKC
     FM231300 VRB04KT P6SM SCT100=

USA.gov is the U.S. government's official web portal to all federal, state and local government web resources and services.